sensor_id;sensor_type;location;lat;lon;timestamp;pressure;altitude;pressure_sealevel;temperature;humidity
16120;BME280;12670;53.502;10.252;2023-02-26T00:00:59;101278.56;;;1.92;88.98
16120;BME280;12670;53.502;10.252;2023-02-26T00:04:04;101284.69;;;1.89;89.02
16120;BME280;12670;53.502;10.252;2023-02-26T00:07:07;101297.78;;;1.95;89.05
16120;BME280;12670;53.502;10.252;2023-02-26T00:10:12;101295.13;;;1.78;89.80
16120;BME280;12670;53.502;10.252;2023-02-26T00:13:15;101303.88;;;1.83;89.56
16120;BME280;12670;53.502;10.252;2023-02-26T00:16:25;101309.97;;;1.82;89.18
16120;BME280;12670;53.502;10.252;2023-02-26T00:19:29;101313.38;;;1.69;89.35
16120;BME280;12670;53.502;10.252;2023-02-26T00:22:32;101323.88;;;1.72;90.06
16120;BME280;12670;53.502;10.252;2023-02-26T00:25:35;101319.53;;;1.77;89.56
16120;BME280;12670;53.502;10.252;2023-02-26T00:28:38;101321.25;;;1.65;89.77
16120;BME280;12670;53.502;10.252;2023-02-26T00:31:42;101327.34;;;1.65;89.97
16120;BME280;12670;53.502;10.252;2023-02-26T00:34:46;101324.72;;;1.67;90.08
16120;BME280;12670;53.502;10.252;2023-02-26T00:37:57;101328.22;;;1.67;90.29
16120;BME280;12670;53.502;10.252;2023-02-26T00:41:01;101342.13;;;1.62;90.38
16120;BME280;12670;53.502;10.252;2023-02-26T00:44:04;101346.50;;;1.64;89.94
16120;BME280;12670;53.502;10.252;2023-02-26T00:47:15;101343.81;;;1.52;90.45
16120;BME280;12670;53.502;10.252;2023-02-26T00:50:21;101361.28;;;1.56;90.15
16120;BME280;12670;53.502;10.252;2023-02-26T00:53:28;101363.94;;;1.59;90.07
16120;BME280;12670;53.502;10.252;2023-02-26T00:56:33;101364.75;;;1.52;89.73
16120;BME280;12670;53.502;10.252;2023-02-26T00:59:35;101369.06;;;1.42;90.18
16120;BME280;12670;53.502;10.252;2023-02-26T01:02:40;101365.59;;;1.45;89.75
16120;BME280;12670;53.502;10.252;2023-02-26T01:05:43;101371.66;;;1.41;90.13
16120;BME280;12670;53.502;10.252;2023-02-26T01:08:50;101375.22;;;1.47;89.42
16120;BME280;12670;53.502;10.252;2023-02-26T01:11:58;101372.56;;;1.46;89.68
16120;BME280;12670;53.502;10.252;2023-02-26T01:15:03;101372.56;;;1.41;89.90
16120;BME280;12670;53.502;10.252;2023-02-26T01:18:11;101382.16;;;1.45;90.26
16120;BME280;12670;53.502;10.252;2023-02-26T01:21:18;101386.47;;;1.39;89.81
16120;BME280;12670;53.502;10.252;2023-02-26T01:24:24;101388.22;;;1.37;89.72
16120;BME280;12670;53.502;10.252;2023-02-26T01:27:28;101387.25;;;1.24;89.96
16120;BME280;12670;53.502;10.252;2023-02-26T01:30:32;101389.00;;;1.26;89.65
16120;BME280;12670;53.502;10.252;2023-02-26T01:33:40;101387.25;;;1.28;89.66
16120;BME280;12670;53.502;10.252;2023-02-26T01:36:51;101394.28;;;1.31;89.47
16120;BME280;12670;53.502;10.252;2023-02-26T01:40:16;101391.66;;;1.32;89.67
16120;BME280;12670;53.502;10.252;2023-02-26T01:43:27;101396.00;;;1.33;89.36
16120;BME280;12670;53.502;10.252;2023-02-26T01:46:37;101402.16;;;1.36;89.42
16120;BME280;12670;53.502;10.252;2023-02-26T01:49:45;101405.63;;;1.38;87.72
16120;BME280;12670;53.502;10.252;2023-02-26T01:56:24;101400.53;;;1.62;84.37
16120;BME280;12670;53.502;10.252;2023-02-26T01:59:27;101400.53;;;1.62;83.46
16120;BME280;12670;53.502;10.252;2023-02-26T02:02:30;101402.25;;;1.54;83.09
16120;BME280;12670;53.502;10.252;2023-02-26T02:05:42;101416.22;;;1.53;83.51
16120;BME280;12670;53.502;10.252;2023-02-26T02:08:46;101412.66;;;1.45;83.44
16120;BME280;12670;53.502;10.252;2023-02-26T02:12:03;101413.59;;;1.54;81.12
16120;BME280;12670;53.502;10.252;2023-02-26T02:15:11;101423.16;;;1.51;80.23
16120;BME280;12670;53.502;10.252;2023-02-26T02:18:20;101429.28;;;1.53;79.36
16120;BME280;12670;53.502;10.252;2023-02-26T02:21:40;101439.75;;;1.56;79.95
16120;BME280;12670;53.502;10.252;2023-02-26T02:24:55;101435.38;;;1.55;79.14
16120;BME280;12670;53.502;10.252;2023-02-26T02:28:07;101441.50;;;1.55;77.93
16120;BME280;12670;53.502;10.252;2023-02-26T02:31:18;101446.75;;;1.62;76.93
16120;BME280;12670;53.502;10.252;2023-02-26T02:34:26;101458.97;;;1.59;78.56
16120;BME280;12670;53.502;10.252;2023-02-26T02:37:35;101457.28;;;1.75;77.47
16120;BME280;12670;53.502;10.252;2023-02-26T02:40:41;101467.72;;;1.69;77.36
16120;BME280;12670;53.502;10.252;2023-02-26T02:43:45;101463.34;;;1.65;78.35
16120;BME280;12670;53.502;10.252;2023-02-26T02:46:53;101472.06;;;1.66;78.54
16120;BME280;12670;53.502;10.252;2023-02-26T02:50:01;101479.06;;;1.65;78.61
16120;BME280;12670;53.502;10.252;2023-02-26T02:53:10;101478.16;;;1.63;78.25
16120;BME280;12670;53.502;10.252;2023-02-26T02:56:19;101482.47;;;1.55;78.71
16120;BME280;12670;53.502;10.252;2023-02-26T02:59:29;101492.00;;;1.48;78.36
16120;BME280;12670;53.502;10.252;2023-02-26T03:02:40;101496.31;;;1.43;79.66
16120;BME280;12670;53.502;10.252;2023-02-26T03:05:47;101495.41;;;1.40;79.79
16120;BME280;12670;53.502;10.252;2023-02-26T03:08:51;101499.66;;;1.28;80.32
16120;BME280;12670;53.502;10.252;2023-02-26T03:11:54;101515.34;;;1.28;80.55
16120;BME280;12670;53.502;10.252;2023-02-26T03:14:57;101516.16;;;1.20;80.82
16120;BME280;12670;53.502;10.252;2023-02-26T03:18:12;101519.59;;;1.14;81.29
16120;BME280;12670;53.502;10.252;2023-02-26T03:21:20;101522.16;;;1.11;81.51
16120;BME280;12670;53.502;10.252;2023-02-26T03:24:27;101526.56;;;1.14;82.18
16120;BME280;12670;53.502;10.252;2023-02-26T03:27:34;101522.16;;;1.11;83.00
16120;BME280;12670;53.502;10.252;2023-02-26T03:30:40;101531.66;;;1.00;83.29
16120;BME280;12670;53.502;10.252;2023-02-26T03:33:51;101530.81;;;1.01;83.18
16120;BME280;12670;53.502;10.252;2023-02-26T03:37:00;101541.19;;;0.95;82.85
16120;BME280;12670;53.502;10.252;2023-02-26T03:40:07;101533.47;;;1.07;82.96
16120;BME280;12670;53.502;10.252;2023-02-26T03:43:16;101542.19;;;1.06;83.56
16120;BME280;12670;53.502;10.252;2023-02-26T03:46:25;101549.84;;;0.92;83.74
16120;BME280;12670;53.502;10.252;2023-02-26T03:49:33;101551.66;;;0.96;84.23
16120;BME280;12670;53.502;10.252;2023-02-26T03:52:40;101561.19;;;0.93;84.21
16120;BME280;12670;53.502;10.252;2023-02-26T03:55:48;101569.88;;;0.92;84.79
16120;BME280;12670;53.502;10.252;2023-02-26T03:58:51;101569.81;;;0.84;84.80
16120;BME280;12670;53.502;10.252;2023-02-26T04:01:58;101577.78;;;0.95;84.52
16120;BME280;12670;53.502;10.252;2023-02-26T04:05:09;101576.03;;;0.95;84.09
16120;BME280;12670;53.502;10.252;2023-02-26T04:08:13;101583.69;;;0.78;84.86
16120;BME280;12670;53.502;10.252;2023-02-26T04:11:19;101586.31;;;0.82;84.58
16120;BME280;12670;53.502;10.252;2023-02-26T04:14:22;101591.66;;;0.89;84.38
16120;BME280;12670;53.502;10.252;2023-02-26T04:17:25;101596.81;;;0.88;84.38
16120;BME280;12670;53.502;10.252;2023-02-26T04:20:32;101597.56;;;0.76;84.92
16120;BME280;12670;53.502;10.252;2023-02-26T04:23:34;101601.03;;;0.73;84.88
16120;BME280;12670;53.502;10.252;2023-02-26T04:26:37;101598.47;;;0.76;85.06
16120;BME280;12670;53.502;10.252;2023-02-26T04:29:39;101606.25;;;0.75;84.72
16120;BME280;12670;53.502;10.252;2023-02-26T04:32:42;101602.97;;;0.90;83.82
16120;BME280;12670;53.502;10.252;2023-02-26T04:35:46;101608.19;;;0.88;84.07
16120;BME280;12670;53.502;10.252;2023-02-26T04:38:49;101620.25;;;0.78;84.59
16120;BME280;12670;53.502;10.252;2023-02-26T04:41:51;101617.44;;;0.63;85.49
16120;BME280;12670;53.502;10.252;2023-02-26T04:44:54;101620.16;;;0.71;84.93
16120;BME280;12670;53.502;10.252;2023-02-26T04:47:57;101624.53;;;0.73;84.48
16120;BME280;12670;53.502;10.252;2023-02-26T04:51:01;101631.44;;;0.68;84.92
16120;BME280;12670;53.502;10.252;2023-02-26T04:54:03;101632.31;;;0.69;85.02
16120;BME280;12670;53.502;10.252;2023-02-26T04:57:06;101641.69;;;0.53;85.34
16120;BME280;12670;53.502;10.252;2023-02-26T05:00:10;101650.50;;;0.61;84.96
16120;BME280;12670;53.502;10.252;2023-02-26T05:03:13;101652.25;;;0.62;84.99
16120;BME280;12670;53.502;10.252;2023-02-26T05:06:17;101656.66;;;0.68;84.56
16120;BME280;12670;53.502;10.252;2023-02-26T05:09:20;101659.91;;;0.51;85.26
16120;BME280;12670;53.502;10.252;2023-02-26T05:12:23;101661.72;;;0.54;85.46
16120;BME280;12670;53.502;10.252;2023-02-26T05:15:26;101659.84;;;0.47;85.17
16120;BME280;12670;53.502;10.252;2023-02-26T05:18:28;101672.91;;;0.47;84.80
16120;BME280;12670;53.502;10.252;2023-02-26T05:21:32;101672.00;;;0.45;85.22
16120;BME280;12670;53.502;10.252;2023-02-26T05:24:35;101679.72;;;0.36;85.20
16120;BME280;12670;53.502;10.252;2023-02-26T05:27:38;101681.59;;;0.44;85.63
16120;BME280;12670;53.502;10.252;2023-02-26T05:30:42;101682.38;;;0.40;85.00
16120;BME280;12670;53.502;10.252;2023-02-26T05:33:45;101680.53;;;0.33;85.20
16120;BME280;12670;53.502;10.252;2023-02-26T05:36:49;101679.75;;;0.39;85.52
16120;BME280;12670;53.502;10.252;2023-02-26T05:39:51;101687.41;;;0.28;85.20
16120;BME280;12670;53.502;10.252;2023-02-26T05:42:54;101684.97;;;0.39;84.90
16120;BME280;12670;53.502;10.252;2023-02-26T05:45:57;101687.50;;;0.33;85.31
16120;BME280;12670;53.502;10.252;2023-02-26T05:48:59;101702.38;;;0.37;85.43
16120;BME280;12670;53.502;10.252;2023-02-26T05:52:03;101697.22;;;0.43;84.11
16120;BME280;12670;53.502;10.252;2023-02-26T05:55:07;101710.97;;;0.30;84.85
16120;BME280;12670;53.502;10.252;2023-02-26T05:58:10;101723.94;;;0.25;84.96
16120;BME280;12670;53.502;10.252;2023-02-26T06:01:13;101732.72;;;0.32;84.75
16120;BME280;12670;53.502;10.252;2023-02-26T06:04:16;101728.31;;;0.28;84.77
16120;BME280;12670;53.502;10.252;2023-02-26T06:07:20;101735.44;;;0.38;84.33
16120;BME280;12670;53.502;10.252;2023-02-26T06:10:22;101732.94;;;0.44;83.42
16120;BME280;12670;53.502;10.252;2023-02-26T06:13:25;101739.81;;;0.40;83.52
16120;BME280;12670;53.502;10.252;2023-02-26T06:16:28;101742.38;;;0.36;84.05
16120;BME280;12670;53.502;10.252;2023-02-26T06:19:31;101754.41;;;0.28;84.04
16120;BME280;12670;53.502;10.252;2023-02-26T06:22:35;101745.78;;;0.32;84.11
16120;BME280;12670;53.502;10.252;2023-02-26T06:25:37;101759.91;;;0.43;84.09
16120;BME280;12670;53.502;10.252;2023-02-26T06:28:40;101762.59;;;0.49;82.84
16120;BME280;12670;53.502;10.252;2023-02-26T06:31:43;101760.66;;;0.37;82.90
16120;BME280;12670;53.502;10.252;2023-02-26T06:34:46;101768.59;;;0.42;83.34
16120;BME280;12670;53.502;10.252;2023-02-26T06:37:50;101785.84;;;0.34;83.62
16120;BME280;12670;53.502;10.252;2023-02-26T06:40:52;101790.38;;;0.44;83.86
16120;BME280;12670;53.502;10.252;2023-02-26T06:43:55;101798.19;;;0.44;82.69
16120;BME280;12670;53.502;10.252;2023-02-26T06:46:58;101805.97;;;0.41;83.54
16120;BME280;12670;53.502;10.252;2023-02-26T06:50:00;101805.38;;;0.57;83.50
16120;BME280;12670;53.502;10.252;2023-02-26T06:53:05;101818.38;;;0.54;83.29
16120;BME280;12670;53.502;10.252;2023-02-26T06:56:08;101817.56;;;0.58;82.67
16120;BME280;12670;53.502;10.252;2023-02-26T06:59:11;101822.69;;;0.52;82.91
16120;BME280;12670;53.502;10.252;2023-02-26T07:02:17;101817.72;;;0.66;82.24
16120;BME280;12670;53.502;10.252;2023-02-26T07:05:20;101825.50;;;0.64;82.50
16120;BME280;12670;53.502;10.252;2023-02-26T07:08:24;101830.59;;;0.55;81.41
16120;BME280;12670;53.502;10.252;2023-02-26T07:11:26;101848.91;;;0.58;82.71
16120;BME280;12670;53.502;10.252;2023-02-26T07:14:29;101835.22;;;0.71;82.88
16120;BME280;12670;53.502;10.252;2023-02-26T07:17:32;101840.56;;;0.80;82.90
16120;BME280;12670;53.502;10.252;2023-02-26T07:20:34;101852.91;;;0.89;81.90
16120;BME280;12670;53.502;10.252;2023-02-26T07:23:38;101855.34;;;0.78;82.56
16120;BME280;12670;53.502;10.252;2023-02-26T07:26:41;101857.31;;;0.93;82.43
16120;BME280;12670;53.502;10.252;2023-02-26T07:29:44;101866.03;;;0.94;81.91
16120;BME280;12670;53.502;10.252;2023-02-26T07:32:46;101874.97;;;1.10;81.91
16120;BME280;12670;53.502;10.252;2023-02-26T07:35:49;101876.03;;;1.22;80.86
16120;BME280;12670;53.502;10.252;2023-02-26T07:38:53;101879.75;;;1.37;80.11
16120;BME280;12670;53.502;10.252;2023-02-26T07:41:56;101874.53;;;1.37;79.76
16120;BME280;12670;53.502;10.252;2023-02-26T07:44:58;101875.50;;;1.45;80.55
16120;BME280;12670;53.502;10.252;2023-02-26T07:48:01;101879.13;;;1.53;79.65
16120;BME280;12670;53.502;10.252;2023-02-26T07:51:04;101883.59;;;1.63;80.97
16120;BME280;12670;53.502;10.252;2023-02-26T07:54:09;101885.63;;;1.85;79.10
16120;BME280;12670;53.502;10.252;2023-02-26T07:57:12;101887.38;;;1.86;79.47
16120;BME280;12670;53.502;10.252;2023-02-26T08:00:16;101891.00;;;1.98;76.06
16120;BME280;12670;53.502;10.252;2023-02-26T08:03:18;101897.91;;;1.93;77.34
16120;BME280;12670;53.502;10.252;2023-02-26T08:06:21;101903.22;;;1.99;78.22
16120;BME280;12670;53.502;10.252;2023-02-26T08:09:26;101906.72;;;1.99;78.27
16120;BME280;12670;53.502;10.252;2023-02-26T08:12:28;101912.00;;;2.02;77.79
16120;BME280;12670;53.502;10.252;2023-02-26T08:15:31;101902.53;;;2.13;78.58
16120;BME280;12670;53.502;10.252;2023-02-26T08:18:34;101900.84;;;2.17;77.20
16120;BME280;12670;53.502;10.252;2023-02-26T08:21:37;101903.59;;;2.29;78.10
16120;BME280;12670;53.502;10.252;2023-02-26T08:24:41;101911.53;;;2.38;76.98
16120;BME280;12670;53.502;10.252;2023-02-26T08:27:43;101912.34;;;2.31;78.72
16120;BME280;12670;53.502;10.252;2023-02-26T08:30:46;101912.41;;;2.36;77.20
16120;BME280;12670;53.502;10.252;2023-02-26T08:33:49;101917.69;;;2.40;77.17
16120;BME280;12670;53.502;10.252;2023-02-26T08:36:51;101928.28;;;2.53;77.73
16120;BME280;12670;53.502;10.252;2023-02-26T08:39:55;101938.78;;;2.56;77.19
16120;BME280;12670;53.502;10.252;2023-02-26T08:42:58;101947.03;;;2.12;77.47
16120;BME280;12670;53.502;10.252;2023-02-26T08:46:01;101942.28;;;2.58;76.02
16120;BME280;12670;53.502;10.252;2023-02-26T08:49:03;101952.56;;;2.36;78.92
16120;BME280;12670;53.502;10.252;2023-02-26T08:52:06;101962.75;;;2.94;77.37
16120;BME280;12670;53.502;10.252;2023-02-26T08:55:10;101967.88;;;2.82;75.94
16120;BME280;12670;53.502;10.252;2023-02-26T08:58:13;101969.00;;;3.10;74.45
16120;BME280;12670;53.502;10.252;2023-02-26T09:01:15;101962.22;;;3.38;74.52
16120;BME280;12670;53.502;10.252;2023-02-26T09:04:18;101967.47;;;3.39;73.28
16120;BME280;12670;53.502;10.252;2023-02-26T09:07:21;101975.47;;;3.53;73.24
16120;BME280;12670;53.502;10.252;2023-02-26T09:10:25;101978.97;;;3.52;70.94
16120;BME280;12670;53.502;10.252;2023-02-26T09:13:28;101983.44;;;3.70;72.22
16120;BME280;12670;53.502;10.252;2023-02-26T09:16:31;101995.66;;;3.68;69.01
16120;BME280;12670;53.502;10.252;2023-02-26T09:19:35;102008.06;;;3.89;67.88
16120;BME280;12670;53.502;10.252;2023-02-26T09:22:38;102004.59;;;3.97;66.28
16120;BME280;12670;53.502;10.252;2023-02-26T09:25:42;101999.44;;;4.13;64.28
16120;BME280;12670;53.502;10.252;2023-02-26T09:28:45;102015.13;;;4.04;62.47
16120;BME280;12670;53.502;10.252;2023-02-26T09:31:48;102022.88;;;3.78;64.38
16120;BME280;12670;53.502;10.252;2023-02-26T09:34:51;102026.25;;;3.61;66.27
16120;BME280;12670;53.502;10.252;2023-02-26T09:37:53;102021.31;;;4.15;64.55
16120;BME280;12670;53.502;10.252;2023-02-26T09:41:01;102028.50;;;4.52;62.75
16120;BME280;12670;53.502;10.252;2023-02-26T09:44:10;102029.44;;;4.70;61.99
16120;BME280;12670;53.502;10.252;2023-02-26T09:47:17;102029.50;;;4.96;60.51
16120;BME280;12670;53.502;10.252;2023-02-26T09:50:25;102037.38;;;4.87;59.23
16120;BME280;12670;53.502;10.252;2023-02-26T09:53:32;102036.50;;;4.89;57.33
16120;BME280;12670;53.502;10.252;2023-02-26T09:56:40;102040.97;;;5.34;57.33
16120;BME280;12670;53.502;10.252;2023-02-26T09:59:43;102047.09;;;5.38;55.67
16120;BME280;12670;53.502;10.252;2023-02-26T10:02:52;102043.56;;;5.67;54.60
16120;BME280;12670;53.502;10.252;2023-02-26T10:06:12;102051.47;;;6.11;53.76
16120;BME280;12670;53.502;10.252;2023-02-26T10:09:28;102047.06;;;6.11;51.43
16120;BME280;12670;53.502;10.252;2023-02-26T10:12:36;102054.97;;;6.02;51.90
16120;BME280;12670;53.502;10.252;2023-02-26T10:15:41;102041.69;;;6.40;50.04
16120;BME280;12670;53.502;10.252;2023-02-26T10:18:48;102040.72;;;6.64;47.52
16120;BME280;12670;53.502;10.252;2023-02-26T10:21:56;102041.31;;;7.15;47.16
16120;BME280;12670;53.502;10.252;2023-02-26T10:25:05;102038.00;;;7.93;45.68
16120;BME280;12670;53.502;10.252;2023-02-26T10:28:24;102048.56;;;7.93;44.41
16120;BME280;12670;53.502;10.252;2023-02-26T10:31:37;102050.88;;;8.24;43.88
16120;BME280;12670;53.502;10.252;2023-02-26T10:34:48;102055.63;;;8.71;42.75
16120;BME280;12670;53.502;10.252;2023-02-26T10:37:55;102063.31;;;8.91;43.40
16120;BME280;12670;53.502;10.252;2023-02-26T10:41:01;102067.78;;;9.46;41.16
16120;BME280;12670;53.502;10.252;2023-02-26T10:44:12;102068.09;;;9.26;42.17
16120;BME280;12670;53.502;10.252;2023-02-26T10:47:22;102077.88;;;9.21;42.76
16120;BME280;12670;53.502;10.252;2023-02-26T10:50:29;102070.53;;;7.97;44.65
16120;BME280;12670;53.502;10.252;2023-02-26T10:53:33;102084.84;;;7.74;46.43
16120;BME280;12670;53.502;10.252;2023-02-26T10:56:35;102067.94;;;7.91;46.30
16120;BME280;12670;53.502;10.252;2023-02-26T10:59:39;102081.72;;;7.20;46.91
16120;BME280;12670;53.502;10.252;2023-02-26T11:02:45;102078.41;;;9.45;46.35
16120;BME280;12670;53.502;10.252;2023-02-26T11:05:48;102081.06;;;9.45;44.59
16120;BME280;12670;53.502;10.252;2023-02-26T11:08:52;102087.31;;;9.93;41.37
16120;BME280;12670;53.502;10.252;2023-02-26T11:12:03;102089.72;;;9.54;42.73
16120;BME280;12670;53.502;10.252;2023-02-26T11:15:13;102079.44;;;9.34;45.54
16120;BME280;12670;53.502;10.252;2023-02-26T11:18:19;102083.97;;;9.25;43.53
16120;BME280;12670;53.502;10.252;2023-02-26T11:21:26;102086.41;;;9.40;42.82
16120;BME280;12670;53.502;10.252;2023-02-26T11:24:33;102085.88;;;9.72;41.97
16120;BME280;12670;53.502;10.252;2023-02-26T11:27:37;102087.00;;;9.00;44.02
16120;BME280;12670;53.502;10.252;2023-02-26T11:30:43;102091.25;;;8.43;45.23
16120;BME280;12670;53.502;10.252;2023-02-26T11:33:48;102081.03;;;8.03;46.51
16120;BME280;12670;53.502;10.252;2023-02-26T11:36:54;102093.47;;;7.95;47.82
16120;BME280;12670;53.502;10.252;2023-02-26T11:40:03;102087.59;;;8.56;46.47
16120;BME280;12670;53.502;10.252;2023-02-26T11:43:12;102098.28;;;7.47;48.00
16120;BME280;12670;53.502;10.252;2023-02-26T11:46:22;102093.16;;;7.19;49.78
16120;BME280;12670;53.502;10.252;2023-02-26T11:49:27;102097.66;;;7.02;49.96
16120;BME280;12670;53.502;10.252;2023-02-26T11:52:32;102091.63;;;6.79;52.21
16120;BME280;12670;53.502;10.252;2023-02-26T11:55:37;102094.31;;;6.70;51.23
16120;BME280;12670;53.502;10.252;2023-02-26T11:58:44;102092.63;;;6.50;53.15
16120;BME280;12670;53.502;10.252;2023-02-26T12:01:50;102082.94;;;6.60;53.00
16120;BME280;12670;53.502;10.252;2023-02-26T12:04:55;102084.75;;;7.84;50.58
16120;BME280;12670;53.502;10.252;2023-02-26T12:07:59;102084.47;;;10.04;45.88
16120;BME280;12670;53.502;10.252;2023-02-26T12:11:17;102075.59;;;10.94;42.40
16120;BME280;12670;53.502;10.252;2023-02-26T12:14:44;102077.28;;;10.57;41.84
16120;BME280;12670;53.502;10.252;2023-02-26T12:18:04;102077.38;;;8.93;45.32
16120;BME280;12670;53.502;10.252;2023-02-26T12:21:21;102083.00;;;7.83;48.01
16120;BME280;12670;53.502;10.252;2023-02-26T12:24:49;102086.28;;;6.99;51.37
16120;BME280;12670;53.502;10.252;2023-02-26T12:28:07;102095.06;;;6.96;52.76
16120;BME280;12670;53.502;10.252;2023-02-26T12:31:42;102098.66;;;6.83;55.16
16120;BME280;12670;53.502;10.252;2023-02-26T12:35:05;102099.63;;;6.54;56.42
16120;BME280;12670;53.502;10.252;2023-02-26T12:38:23;102100.47;;;6.75;56.68
16120;BME280;12670;53.502;10.252;2023-02-26T12:41:37;102104.00;;;6.69;56.86
16120;BME280;12670;53.502;10.252;2023-02-26T12:44:54;102096.06;;;6.75;58.22
16120;BME280;12670;53.502;10.252;2023-02-26T12:48:22;102101.94;;;7.25;56.08
16120;BME280;12670;53.502;10.252;2023-02-26T12:51:45;102099.59;;;6.66;56.44
16120;BME280;12670;53.502;10.252;2023-02-26T12:55:04;102093.41;;;6.81;56.38
16120;BME280;12670;53.502;10.252;2023-02-26T12:58:32;102100.66;;;7.78;54.97
16120;BME280;12670;53.502;10.252;2023-02-26T13:01:50;102101.78;;;7.51;55.22
16120;BME280;12670;53.502;10.252;2023-02-26T13:05:22;102099.50;;;8.08;54.81
16120;BME280;12670;53.502;10.252;2023-02-26T13:08:33;102100.72;;;7.74;53.91
16120;BME280;12670;53.502;10.252;2023-02-26T13:11:47;102091.94;;;9.26;50.12
16120;BME280;12670;53.502;10.252;2023-02-26T13:14:59;102093.03;;;9.08;50.50
16120;BME280;12670;53.502;10.252;2023-02-26T13:18:12;102091.06;;;8.58;51.56
16120;BME280;12670;53.502;10.252;2023-02-26T13:21:20;102094.56;;;8.60;50.86
16120;BME280;12670;53.502;10.252;2023-02-26T13:24:31;102090.25;;;9.19;50.88
16120;BME280;12670;53.502;10.252;2023-02-26T13:27:36;102098.34;;;8.35;52.63
16120;BME280;12670;53.502;10.252;2023-02-26T13:30:46;102098.75;;;7.95;53.74
16120;BME280;12670;53.502;10.252;2023-02-26T13:33:50;102100.81;;;7.56;53.90
16120;BME280;12670;53.502;10.252;2023-02-26T13:36:54;102102.88;;;7.17;54.82
16120;BME280;12670;53.502;10.252;2023-02-26T13:40:14;102093.16;;;7.24;55.08
16120;BME280;12670;53.502;10.252;2023-02-26T13:43:32;102101.16;;;7.10;55.29
16120;BME280;12670;53.502;10.252;2023-02-26T13:46:46;102097.38;;;7.51;53.12
16120;BME280;12670;53.502;10.252;2023-02-26T13:50:03;102086.16;;;8.98;49.65
16120;BME280;12670;53.502;10.252;2023-02-26T13:56:54;102101.19;;;8.15;49.26
16120;BME280;12670;53.502;10.252;2023-02-26T14:00:14;102101.63;;;7.67;50.19
16120;BME280;12670;53.502;10.252;2023-02-26T14:03:31;102096.88;;;8.09;50.29
16120;BME280;12670;53.502;10.252;2023-02-26T14:06:39;102104.19;;;7.77;50.40
16120;BME280;12670;53.502;10.252;2023-02-26T14:09:45;102093.72;;;8.58;49.83
16120;BME280;12670;53.502;10.252;2023-02-26T14:13:09;102099.91;;;9.80;46.68
16120;BME280;12670;53.502;10.252;2023-02-26T14:16:20;102087.19;;;10.47;43.99
16120;BME280;12670;53.502;10.252;2023-02-26T14:19:31;102097.38;;;10.22;43.56
16120;BME280;12670;53.502;10.252;2023-02-26T14:22:35;102090.06;;;9.31;46.83
16120;BME280;12670;53.502;10.252;2023-02-26T14:25:46;102096.19;;;8.72;49.06
16120;BME280;12670;53.502;10.252;2023-02-26T14:29:06;102096.63;;;8.31;49.91
16120;BME280;12670;53.502;10.252;2023-02-26T14:32:21;102112.09;;;7.78;50.17
16120;BME280;12670;53.502;10.252;2023-02-26T14:35:29;102105.44;;;7.27;51.77
16120;BME280;12670;53.502;10.252;2023-02-26T14:38:35;102101.88;;;7.34;53.70
16120;BME280;12670;53.502;10.252;2023-02-26T14:41:39;102107.81;;;7.65;53.05
16120;BME280;12670;53.502;10.252;2023-02-26T14:44:46;102110.34;;;7.77;53.07
16120;BME280;12670;53.502;10.252;2023-02-26T14:47:49;102113.16;;;8.54;51.35
16120;BME280;12670;53.502;10.252;2023-02-26T14:51:13;102107.75;;;8.65;52.13
16120;BME280;12670;53.502;10.252;2023-02-26T14:54:28;102104.53;;;9.09;49.03
16120;BME280;12670;53.502;10.252;2023-02-26T14:57:40;102110.84;;;9.59;48.82
16120;BME280;12670;53.502;10.252;2023-02-26T15:00:50;102115.00;;;9.75;47.50
16120;BME280;12670;53.502;10.252;2023-02-26T15:04:13;102112.44;;;9.69;46.36
16120;BME280;12670;53.502;10.252;2023-02-26T15:07:27;102112.06;;;9.91;45.43
16120;BME280;12670;53.502;10.252;2023-02-26T15:10:42;102114.06;;;9.19;46.18
16120;BME280;12670;53.502;10.252;2023-02-26T15:14:08;102114.88;;;9.24;47.41
16120;BME280;12670;53.502;10.252;2023-02-26T15:17:25;102120.41;;;8.37;49.19
16120;BME280;12670;53.502;10.252;2023-02-26T15:20:37;102120.97;;;7.74;51.17
16120;BME280;12670;53.502;10.252;2023-02-26T15:23:43;102122.03;;;7.48;53.14
16120;BME280;12670;53.502;10.252;2023-02-26T15:26:49;102123.13;;;7.15;53.06
16120;BME280;12670;53.502;10.252;2023-02-26T15:29:52;102133.97;;;6.42;56.71
16120;BME280;12670;53.502;10.252;2023-02-26T15:32:59;102135.56;;;6.92;57.65
16120;BME280;12670;53.502;10.252;2023-02-26T15:36:05;102139.13;;;6.73;57.12
16120;BME280;12670;53.502;10.252;2023-02-26T15:39:13;102141.88;;;6.45;58.01
16120;BME280;12670;53.502;10.252;2023-02-26T15:42:18;102147.97;;;6.50;58.92
16120;BME280;12670;53.502;10.252;2023-02-26T15:45:26;102147.13;;;6.33;57.97
16120;BME280;12670;53.502;10.252;2023-02-26T15:48:33;102153.28;;;6.38;59.55
16120;BME280;12670;53.502;10.252;2023-02-26T15:51:38;102150.66;;;5.80;61.97
16120;BME280;12670;53.502;10.252;2023-02-26T15:54:43;102147.19;;;6.18;61.84
16120;BME280;12670;53.502;10.252;2023-02-26T15:57:46;102144.56;;;6.22;62.03
16120;BME280;12670;53.502;10.252;2023-02-26T16:00:52;102150.69;;;6.15;62.27
16120;BME280;12670;53.502;10.252;2023-02-26T16:03:58;102154.19;;;5.82;62.10
16120;BME280;12670;53.502;10.252;2023-02-26T16:07:01;102162.06;;;5.73;62.15
16120;BME280;12670;53.502;10.252;2023-02-26T16:10:06;102158.53;;;5.57;61.25
16120;BME280;12670;53.502;10.252;2023-02-26T16:13:13;102164.72;;;5.76;61.86
16120;BME280;12670;53.502;10.252;2023-02-26T16:16:21;102164.63;;;5.31;60.57
16120;BME280;12670;53.502;10.252;2023-02-26T16:19:31;102169.91;;;5.45;60.35
16120;BME280;12670;53.502;10.252;2023-02-26T16:22:36;102174.31;;;5.37;59.22
16120;BME280;12670;53.502;10.252;2023-02-26T16:25:47;102170.84;;;5.61;60.54